Hauptseite
METAR-TAF:

METAR-TAF

Flughäfen :

Flughafen Bloemfontein

Bloemfontein, Südafrika

Breite: 29-06S, Länge: 026-18E, Höhe: 1354 m

Beobachtung

Neuester Wetterbericht von vor 48 Minuten, um 22:00 UTC
Wind 7 kt aus Süd
Temperatur 16°C
Luftfeuchtigkeit 72%
Luftdruck 1020 hPa

METAR: FABL 252200Z AUTO 19007KT //// R02///// // ///////// 16/11 Q1020

Zeit: 00:48 (22:48 UTC)

Prognose

Neuester Wetterbericht von vor 6 Stunden und 48 Minuten, um 16:00 UTC
Gültige Prognose vom 25 um 18 UTC bis 26 um 18 UTC
Wind 10 kt aus Nord/Nordwest
Sichtweite 10 km oder mehr
Aufgelockert bewölkt in der Höhe von 3000 ft

TAF: FABL 251600Z 2518/2618 34010KT 9999 SCT030 TX30/2613Z TN16/2603Z

Wetterbeobachtungen und Prognosen von mehr als 4000 Flughäfen (METAR und TAF Bericht).

Die verfügbaren Stationen werden durch gelbe und rote Markierungen auf der Karte dargestellt.

Führen Sie die Maus auf sie, um den Namen der Station zu sehen.

Darauf klicken, um die Beobachtung von Wetterbeobachtungen und Prognosen zu sehen.

Um die Karte zu ändern : klicken Sie auf den grünen Tasten mit einem schwarzen Kreuz Zum Vergrößern, auf den grünen Button mit einem Gedankenstrich zu verkleinern, oder auf die grünen Pfeile für benachbarte Karten.


METAR-TAF: